Liscombe, United Kingdom
Current Conditions -  °F | °C
As of 2:50 PM on Thursday 30 Oct 2014 (Local Time) from EGDX Reporting Station
Haze Haze  
Wind Chill: 63°   Ceiling: 5000
Heat Index: 63°   Visibility: 5mi
Dew Point: 59°   Wind: 8mph
Humidity: 88%   Direction: 150°SSE
Pressure: 29.97"   Gusts: NA
Location:  51.08°N, 3.6°W
Report Text: EGDX 301450Z 15007KT 8000 HZ FEW013 BKN050 17/15 Q1015 BLU
Loading
Personal Weather Stations






























Interactive Weather Map New forecast layout! Learn more

10-Day Weather Forecast

Advertisements
Track Severe Weather on mobile